EXS69PU EGCC-LEMG
Flight info
| Callsign | EXS69PU |
|---|---|
| Flight time | 2h 33m |
| Altitude | 37000 |
| Route | KUXEM P17 BEPHE DCT OSSEP DCT ELNIF DCT ZESPE DCT KLAKI DCT SALCO DCT NOVAN DCT DELOG DCT CRISA N864 VULPE |
| Aircraft | B738/M-SDE2E3FGHIRWXY/LB1 |
Departure
| Time | 2026-05-07 15:12 |
|---|---|
| Airport | Manchester Airport (EGCC) |
Arrival
| Time | 2026-05-07 17:45 |
|---|---|
| Airport | Málaga-Costa del Sol Airport (LEMG) |
| Time | Latitude | Longitude | Altitude | Speed | Heading |
|---|---|---|---|---|---|
| 2026-05-07 14:21 | 53.36769 | -2.28915 | 0 ft | 0 kts | 135° |
| 2026-05-07 14:51 | 53.36770 | -2.28917 | 232 ft | 2 kts | 135° |
| 2026-05-07 14:51 | 53.36788 | -2.28947 | 234 ft | 4 kts | 135° |
| 2026-05-07 14:52 | 53.36803 | -2.28974 | 234 ft | 4 kts | 141° |
| 2026-05-07 14:52 | 53.36825 | -2.28991 | 237 ft | 4 kts | 188° |
| 2026-05-07 14:52 | 53.36848 | -2.28973 | 235 ft | 4 kts | 224° |
| 2026-05-07 14:52 | 53.36866 | -2.28943 | 234 ft | 4 kts | 225° |
| 2026-05-07 14:53 | 53.36877 | -2.28925 | 236 ft | 0 kts | 225° |
| 2026-05-07 14:56 | 53.36876 | -2.28926 | 236 ft | 0 kts | 225° |
| 2026-05-07 14:56 | 53.36867 | -2.28943 | 234 ft | 4 kts | 225° |
| 2026-05-07 14:57 | 53.36831 | -2.28998 | 233 ft | 10 kts | 216° |
| 2026-05-07 14:57 | 53.36755 | -2.29039 | 232 ft | 13 kts | 166° |
| 2026-05-07 14:57 | 53.36688 | -2.28943 | 232 ft | 11 kts | 135° |
| 2026-05-07 14:57 | 53.36631 | -2.28884 | 234 ft | 10 kts | 146° |
| 2026-05-07 14:58 | 53.36589 | -2.28799 | 232 ft | 9 kts | 114° |
| 2026-05-07 14:58 | 53.36555 | -2.28707 | 232 ft | 9 kts | 131° |
| 2026-05-07 14:58 | 53.36509 | -2.28627 | 232 ft | 10 kts | 134° |
| 2026-05-07 14:58 | 53.36470 | -2.28560 | 225 ft | 7 kts | 134° |
| 2026-05-07 14:59 | 53.36433 | -2.28504 | 233 ft | 7 kts | 150° |
| 2026-05-07 14:59 | 53.36380 | -2.28511 | 232 ft | 9 kts | 189° |
| 2026-05-07 14:59 | 53.36318 | -2.28461 | 232 ft | 11 kts | 134° |
| 2026-05-07 14:59 | 53.36260 | -2.28359 | 232 ft | 13 kts | 134° |
| 2026-05-07 15:00 | 53.36195 | -2.28248 | 232 ft | 13 kts | 134° |
| 2026-05-07 15:00 | 53.36133 | -2.28141 | 232 ft | 13 kts | 134° |
| 2026-05-07 15:00 | 53.36072 | -2.28036 | 232 ft | 12 kts | 135° |
| 2026-05-07 15:00 | 53.36012 | -2.27934 | 232 ft | 12 kts | 135° |
| 2026-05-07 15:01 | 53.35948 | -2.27853 | 233 ft | 12 kts | 162° |
| 2026-05-07 15:01 | 53.35871 | -2.27835 | 234 ft | 11 kts | 149° |
| 2026-05-07 15:01 | 53.35817 | -2.27742 | 232 ft | 11 kts | 132° |
| 2026-05-07 15:01 | 53.35761 | -2.27661 | 232 ft | 11 kts | 154° |
| 2026-05-07 15:02 | 53.35725 | -2.27636 | 232 ft | 0 kts | 160° |
| 2026-05-07 15:03 | 53.35708 | -2.27626 | 232 ft | 6 kts | 159° |
| 2026-05-07 15:03 | 53.35656 | -2.27571 | 233 ft | 12 kts | 143° |
| 2026-05-07 15:03 | 53.35578 | -2.27468 | 232 ft | 15 kts | 141° |
| 2026-05-07 15:04 | 53.35497 | -2.27358 | 237 ft | 15 kts | 141° |
| 2026-05-07 15:04 | 53.35415 | -2.27246 | 237 ft | 17 kts | 141° |
| 2026-05-07 15:04 | 53.35317 | -2.27195 | 232 ft | 14 kts | 195° |
| 2026-05-07 15:04 | 53.35268 | -2.27249 | 232 ft | 7 kts | 228° |
| 2026-05-07 15:05 | 53.35228 | -2.27331 | 232 ft | 12 kts | 231° |
| 2026-05-07 15:05 | 53.35164 | -2.27464 | 232 ft | 17 kts | 231° |
| 2026-05-07 15:05 | 53.35067 | -2.27491 | 232 ft | 9 kts | 168° |
| 2026-05-07 15:05 | 53.35048 | -2.27486 | 232 ft | 0 kts | 171° |
| 2026-05-07 15:08 | 53.35041 | -2.27484 | 232 ft | 4 kts | 171° |
| 2026-05-07 15:09 | 53.34996 | -2.27472 | 232 ft | 7 kts | 171° |
| 2026-05-07 15:09 | 53.34946 | -2.27466 | 232 ft | 7 kts | 195° |
| 2026-05-07 15:09 | 53.34918 | -2.27510 | 232 ft | 0 kts | 230° |
| 2026-05-07 15:11 | 53.34906 | -2.27534 | 231 ft | 11 kts | 230° |
| 2026-05-07 15:11 | 53.34699 | -2.27963 | 230 ft | 84 kts | 231° |
| 2026-05-07 15:12 | 53.34187 | -2.29023 | 232 ft | 147 kts | 231° |
| 2026-05-07 15:12 | 53.33428 | -2.30515 | 506 ft | 177 kts | 228° |
| 2026-05-07 15:12 | 53.32643 | -2.32051 | 1599 ft | 169 kts | 224° |
| 2026-05-07 15:12 | 53.31981 | -2.33664 | 2372 ft | 182 kts | 249° |
| 2026-05-07 15:13 | 53.31879 | -2.35951 | 2620 ft | 213 kts | 275° |
| 2026-05-07 15:13 | 53.32146 | -2.38513 | 2872 ft | 233 kts | 278° |
| 2026-05-07 15:13 | 53.32483 | -2.41225 | 3236 ft | 248 kts | 277° |
| 2026-05-07 15:13 | 53.32483 | -2.44153 | 3625 ft | 256 kts | 254° |
| 2026-05-07 15:14 | 53.31975 | -2.46987 | 4354 ft | 255 kts | 249° |
| 2026-05-07 15:14 | 53.31425 | -2.49842 | 5036 ft | 259 kts | 249° |
| 2026-05-07 15:14 | 53.30841 | -2.52669 | 5742 ft | 259 kts | 240° |
| 2026-05-07 15:14 | 53.29593 | -2.54755 | 6447 ft | 256 kts | 205° |
| 2026-05-07 15:15 | 53.27903 | -2.55671 | 7167 ft | 256 kts | 193° |
| 2026-05-07 15:15 | 53.26137 | -2.56255 | 7800 ft | 262 kts | 191° |
| 2026-05-07 15:15 | 53.24334 | -2.56776 | 8503 ft | 264 kts | 190° |
| 2026-05-07 15:15 | 53.22550 | -2.57283 | 9275 ft | 265 kts | 191° |
| 2026-05-07 15:16 | 53.20721 | -2.57812 | 9999 ft | 268 kts | 191° |
| 2026-05-07 15:16 | 53.18847 | -2.58361 | 10415 ft | 283 kts | 191° |
| 2026-05-07 15:16 | 53.16829 | -2.58961 | 10594 ft | 305 kts | 191° |
| 2026-05-07 15:16 | 53.14680 | -2.59607 | 10914 ft | 320 kts | 191° |
| 2026-05-07 15:17 | 53.12462 | -2.60277 | 11501 ft | 326 kts | 191° |
| 2026-05-07 15:17 | 53.10227 | -2.60956 | 12241 ft | 328 kts | 191° |
| 2026-05-07 15:17 | 53.07961 | -2.61646 | 12950 ft | 332 kts | 190° |
| 2026-05-07 15:17 | 53.05678 | -2.62342 | 13655 ft | 337 kts | 190° |
| 2026-05-07 15:18 | 53.03358 | -2.63048 | 14312 ft | 341 kts | 190° |
| 2026-05-07 15:18 | 53.01042 | -2.63755 | 14972 ft | 345 kts | 191° |
| 2026-05-07 15:18 | 52.98675 | -2.64477 | 15646 ft | 348 kts | 191° |
| 2026-05-07 15:18 | 52.96269 | -2.65210 | 16281 ft | 353 kts | 191° |
| 2026-05-07 15:19 | 52.93845 | -2.65947 | 16918 ft | 357 kts | 191° |
| 2026-05-07 15:19 | 52.91376 | -2.66697 | 17564 ft | 362 kts | 191° |
| 2026-05-07 15:19 | 52.88890 | -2.67453 | 18201 ft | 366 kts | 191° |
| 2026-05-07 15:19 | 52.86368 | -2.68218 | 18759 ft | 370 kts | 191° |
| 2026-05-07 15:20 | 52.83820 | -2.68989 | 19345 ft | 373 kts | 191° |
| 2026-05-07 15:20 | 52.81302 | -2.69750 | 19914 ft | 376 kts | 191° |
| 2026-05-07 15:20 | 52.78708 | -2.70534 | 20483 ft | 379 kts | 191° |
| 2026-05-07 15:20 | 52.76105 | -2.71319 | 21029 ft | 382 kts | 191° |
| 2026-05-07 15:21 | 52.73476 | -2.72112 | 21575 ft | 386 kts | 191° |
| 2026-05-07 15:21 | 52.70827 | -2.72910 | 22108 ft | 389 kts | 191° |
| 2026-05-07 15:21 | 52.68155 | -2.73713 | 22637 ft | 392 kts | 191° |
| 2026-05-07 15:21 | 52.65456 | -2.74524 | 23162 ft | 395 kts | 191° |
| 2026-05-07 15:22 | 52.62746 | -2.75336 | 23651 ft | 398 kts | 191° |
| 2026-05-07 15:22 | 52.59995 | -2.76019 | 24065 ft | 402 kts | 186° |
| 2026-05-07 15:22 | 52.57228 | -2.76259 | 24504 ft | 404 kts | 183° |
| 2026-05-07 15:22 | 52.54419 | -2.76434 | 24945 ft | 406 kts | 183° |
| 2026-05-07 15:23 | 52.51590 | -2.76642 | 25380 ft | 408 kts | 184° |
| 2026-05-07 15:23 | 52.48749 | -2.76877 | 25809 ft | 410 kts | 184° |
| 2026-05-07 15:23 | 52.45892 | -2.77123 | 26210 ft | 412 kts | 184° |
| 2026-05-07 15:23 | 52.43026 | -2.77374 | 26607 ft | 414 kts | 184° |
| 2026-05-07 15:24 | 52.40133 | -2.77627 | 26977 ft | 417 kts | 184° |
| 2026-05-07 15:24 | 52.37231 | -2.77880 | 27355 ft | 419 kts | 184° |
| 2026-05-07 15:24 | 52.34314 | -2.78133 | 27735 ft | 421 kts | 184° |
| 2026-05-07 15:24 | 52.31374 | -2.78386 | 28102 ft | 424 kts | 184° |
| 2026-05-07 15:25 | 52.28425 | -2.78640 | 28457 ft | 426 kts | 184° |
| 2026-05-07 15:25 | 52.25501 | -2.78891 | 28782 ft | 428 kts | 184° |
| 2026-05-07 15:25 | 52.22514 | -2.79147 | 29107 ft | 431 kts | 184° |
| 2026-05-07 15:25 | 52.19508 | -2.79405 | 29432 ft | 433 kts | 184° |
| 2026-05-07 15:26 | 52.16494 | -2.79662 | 29745 ft | 435 kts | 184° |
| 2026-05-07 15:26 | 52.13455 | -2.79922 | 30052 ft | 438 kts | 184° |
| 2026-05-07 15:26 | 52.10409 | -2.80182 | 30347 ft | 439 kts | 184° |
| 2026-05-07 15:26 | 52.07367 | -2.80441 | 30713 ft | 437 kts | 184° |
| 2026-05-07 15:27 | 52.04342 | -2.80698 | 31116 ft | 436 kts | 184° |
| 2026-05-07 15:27 | 52.01359 | -2.80952 | 31475 ft | 435 kts | 184° |
| 2026-05-07 15:27 | 51.98338 | -2.81209 | 31803 ft | 435 kts | 184° |
| 2026-05-07 15:27 | 51.95326 | -2.81466 | 32145 ft | 434 kts | 184° |
| 2026-05-07 15:28 | 51.92313 | -2.81722 | 32513 ft | 433 kts | 184° |
| 2026-05-07 15:28 | 51.89306 | -2.81977 | 32867 ft | 432 kts | 184° |
| 2026-05-07 15:28 | 51.86303 | -2.82232 | 33195 ft | 432 kts | 185° |
| 2026-05-07 15:28 | 51.83312 | -2.82660 | 33513 ft | 431 kts | 188° |
| 2026-05-07 15:29 | 51.80345 | -2.83275 | 33853 ft | 430 kts | 189° |
| 2026-05-07 15:29 | 51.77394 | -2.83940 | 34156 ft | 429 kts | 189° |
| 2026-05-07 15:29 | 51.74438 | -2.84610 | 34407 ft | 429 kts | 189° |
| 2026-05-07 15:29 | 51.71476 | -2.85267 | 34618 ft | 429 kts | 189° |
| 2026-05-07 15:30 | 51.68553 | -2.85900 | 34852 ft | 429 kts | 189° |
| 2026-05-07 15:30 | 51.65600 | -2.86528 | 35095 ft | 429 kts | 189° |
| 2026-05-07 15:30 | 51.62634 | -2.87155 | 35320 ft | 429 kts | 189° |
| 2026-05-07 15:30 | 51.59675 | -2.87778 | 35514 ft | 429 kts | 189° |
| 2026-05-07 15:31 | 51.56707 | -2.88403 | 35750 ft | 429 kts | 189° |
| 2026-05-07 15:31 | 51.53747 | -2.89027 | 35944 ft | 429 kts | 189° |
| 2026-05-07 15:31 | 51.50790 | -2.89653 | 36137 ft | 430 kts | 189° |
| 2026-05-07 15:31 | 51.47822 | -2.90282 | 36336 ft | 430 kts | 189° |
| 2026-05-07 15:32 | 51.44895 | -2.90903 | 36542 ft | 429 kts | 189° |
| 2026-05-07 15:32 | 51.41938 | -2.91529 | 36737 ft | 430 kts | 189° |
| 2026-05-07 15:32 | 51.38972 | -2.92156 | 36910 ft | 430 kts | 189° |
| 2026-05-07 15:32 | 51.36002 | -2.92784 | 37014 ft | 431 kts | 189° |
| 2026-05-07 15:33 | 51.30037 | -2.94040 | 37017 ft | 431 kts | 189° |
| 2026-05-07 15:33 | 51.24111 | -2.95284 | 37011 ft | 429 kts | 189° |
| 2026-05-07 15:34 | 51.18204 | -2.96521 | 37014 ft | 427 kts | 189° |
| 2026-05-07 15:34 | 51.12371 | -2.97740 | 37015 ft | 425 kts | 189° |
| 2026-05-07 15:35 | 51.06504 | -2.98964 | 37018 ft | 425 kts | 189° |
| 2026-05-07 15:35 | 51.00642 | -3.00183 | 37016 ft | 425 kts | 189° |
| 2026-05-07 15:36 | 50.95771 | -3.01193 | 37019 ft | 426 kts | 189° |
| 2026-05-07 15:36 | 50.88929 | -3.02609 | 37017 ft | 427 kts | 189° |
| 2026-05-07 15:37 | 50.83032 | -3.03826 | 37020 ft | 428 kts | 189° |
| 2026-05-07 15:37 | 50.77106 | -3.05046 | 37017 ft | 430 kts | 189° |
| 2026-05-07 15:38 | 50.72172 | -3.06059 | 37021 ft | 431 kts | 189° |
| 2026-05-07 15:38 | 50.65266 | -3.07473 | 37018 ft | 431 kts | 189° |
| 2026-05-07 15:39 | 50.59313 | -3.08689 | 37017 ft | 431 kts | 189° |
| 2026-05-07 15:39 | 50.54373 | -3.09695 | 37022 ft | 431 kts | 189° |
| 2026-05-07 15:40 | 50.48437 | -3.10902 | 37016 ft | 430 kts | 189° |
| 2026-05-07 15:40 | 50.42510 | -3.12105 | 37017 ft | 429 kts | 189° |
| 2026-05-07 15:41 | 50.36629 | -3.13568 | 37010 ft | 427 kts | 197° |
| 2026-05-07 15:41 | 50.31148 | -3.16841 | 37016 ft | 424 kts | 203° |
| 2026-05-07 15:42 | 50.25711 | -3.20378 | 37018 ft | 424 kts | 203° |
| 2026-05-07 15:42 | 50.20262 | -3.23869 | 37016 ft | 423 kts | 203° |
| 2026-05-07 15:43 | 50.14795 | -3.27328 | 37016 ft | 423 kts | 203° |
| 2026-05-07 15:43 | 50.09369 | -3.30744 | 37018 ft | 424 kts | 203° |
| 2026-05-07 15:44 | 50.03892 | -3.34182 | 37016 ft | 424 kts | 202° |
| 2026-05-07 15:44 | 49.98418 | -3.37612 | 37018 ft | 425 kts | 202° |
| 2026-05-07 15:45 | 49.92926 | -3.41045 | 37012 ft | 426 kts | 202° |
| 2026-05-07 15:45 | 49.87428 | -3.44474 | 37009 ft | 426 kts | 202° |
| 2026-05-07 15:46 | 49.79195 | -3.49593 | 37009 ft | 427 kts | 202° |
| 2026-05-07 15:47 | 49.73580 | -3.52636 | 36998 ft | 429 kts | 193° |
| 2026-05-07 15:47 | 49.67642 | -3.53478 | 37015 ft | 430 kts | 183° |
| 2026-05-07 15:48 | 49.61649 | -3.53717 | 37003 ft | 431 kts | 183° |
| 2026-05-07 15:48 | 49.55661 | -3.53970 | 37000 ft | 431 kts | 183° |
| 2026-05-07 15:49 | 49.49709 | -3.54261 | 36998 ft | 430 kts | 184° |
| 2026-05-07 15:49 | 49.43729 | -3.54570 | 36996 ft | 430 kts | 184° |
| 2026-05-07 15:50 | 49.37748 | -3.54884 | 36999 ft | 430 kts | 184° |
| 2026-05-07 15:50 | 49.31774 | -3.55196 | 36992 ft | 430 kts | 184° |
| 2026-05-07 15:51 | 49.25802 | -3.55506 | 36992 ft | 429 kts | 184° |
| 2026-05-07 15:51 | 49.19873 | -3.55814 | 36990 ft | 429 kts | 184° |
| 2026-05-07 15:52 | 49.13900 | -3.56123 | 36983 ft | 429 kts | 184° |
| 2026-05-07 15:52 | 49.07944 | -3.56430 | 36984 ft | 429 kts | 184° |
| 2026-05-07 15:53 | 49.01988 | -3.56736 | 36987 ft | 428 kts | 184° |
| 2026-05-07 15:53 | 48.96067 | -3.57041 | 36995 ft | 429 kts | 184° |
| 2026-05-07 15:54 | 48.90092 | -3.57347 | 37003 ft | 431 kts | 184° |
| 2026-05-07 15:54 | 48.84097 | -3.57653 | 36986 ft | 431 kts | 184° |
| 2026-05-07 15:55 | 48.78106 | -3.57958 | 36995 ft | 430 kts | 184° |
| 2026-05-07 15:55 | 48.72170 | -3.58260 | 36993 ft | 430 kts | 184° |
| 2026-05-07 15:56 | 48.66203 | -3.58563 | 36986 ft | 429 kts | 184° |
| 2026-05-07 15:56 | 48.60237 | -3.58864 | 36976 ft | 429 kts | 184° |
| 2026-05-07 15:57 | 48.54275 | -3.59165 | 36957 ft | 429 kts | 184° |
| 2026-05-07 15:57 | 48.48316 | -3.59466 | 36959 ft | 428 kts | 184° |
| 2026-05-07 15:58 | 48.42417 | -3.59762 | 36969 ft | 427 kts | 184° |
| 2026-05-07 15:58 | 48.36474 | -3.60060 | 36968 ft | 427 kts | 184° |
| 2026-05-07 15:59 | 48.30540 | -3.60357 | 36966 ft | 427 kts | 184° |
| 2026-05-07 15:59 | 48.24612 | -3.60653 | 36972 ft | 427 kts | 184° |
| 2026-05-07 16:00 | 48.18711 | -3.60947 | 36972 ft | 427 kts | 184° |
| 2026-05-07 16:00 | 48.12775 | -3.61242 | 36972 ft | 427 kts | 184° |
| 2026-05-07 16:01 | 48.06839 | -3.61536 | 36971 ft | 427 kts | 184° |
| 2026-05-07 16:01 | 48.00887 | -3.61830 | 36986 ft | 428 kts | 184° |
| 2026-05-07 16:02 | 47.94968 | -3.62123 | 36990 ft | 429 kts | 184° |
| 2026-05-07 16:02 | 47.88983 | -3.62417 | 36989 ft | 430 kts | 184° |
| 2026-05-07 16:03 | 47.82993 | -3.62711 | 36993 ft | 431 kts | 184° |
| 2026-05-07 16:03 | 47.77001 | -3.63005 | 36991 ft | 431 kts | 184° |
| 2026-05-07 16:04 | 47.71004 | -3.63298 | 36989 ft | 431 kts | 184° |
| 2026-05-07 16:04 | 47.65053 | -3.63588 | 36990 ft | 430 kts | 184° |
| 2026-05-07 16:05 | 47.59071 | -3.63879 | 36989 ft | 430 kts | 184° |
| 2026-05-07 16:05 | 47.53089 | -3.64169 | 36986 ft | 430 kts | 184° |
| 2026-05-07 16:06 | 47.47114 | -3.64458 | 36983 ft | 429 kts | 184° |
| 2026-05-07 16:06 | 47.41153 | -3.64747 | 36991 ft | 429 kts | 184° |
| 2026-05-07 16:07 | 47.35223 | -3.65032 | 36994 ft | 429 kts | 184° |
| 2026-05-07 16:07 | 47.29255 | -3.65320 | 36986 ft | 429 kts | 184° |
| 2026-05-07 16:08 | 47.23282 | -3.65606 | 36988 ft | 430 kts | 184° |
| 2026-05-07 16:08 | 47.17306 | -3.65893 | 36985 ft | 430 kts | 184° |
| 2026-05-07 16:09 | 47.11356 | -3.66177 | 36988 ft | 431 kts | 184° |
| 2026-05-07 16:09 | 47.05366 | -3.66463 | 36987 ft | 431 kts | 184° |
| 2026-05-07 16:10 | 46.99367 | -3.66748 | 36989 ft | 432 kts | 184° |
| 2026-05-07 16:10 | 46.93350 | -3.67034 | 36986 ft | 433 kts | 184° |
| 2026-05-07 16:11 | 46.87330 | -3.67319 | 36982 ft | 433 kts | 184° |
| 2026-05-07 16:11 | 46.81336 | -3.67602 | 36980 ft | 434 kts | 184° |
| 2026-05-07 16:12 | 46.75299 | -3.67886 | 36988 ft | 434 kts | 184° |
| 2026-05-07 16:12 | 46.69264 | -3.68170 | 36982 ft | 434 kts | 184° |
| 2026-05-07 16:13 | 46.63227 | -3.68453 | 36980 ft | 434 kts | 184° |
| 2026-05-07 16:13 | 46.57220 | -3.68735 | 36976 ft | 435 kts | 184° |
| 2026-05-07 16:14 | 46.51178 | -3.69017 | 36977 ft | 435 kts | 184° |
| 2026-05-07 16:14 | 46.45121 | -3.69300 | 36984 ft | 437 kts | 184° |
| 2026-05-07 16:15 | 46.39025 | -3.69583 | 36982 ft | 439 kts | 184° |
| 2026-05-07 16:15 | 46.32890 | -3.69869 | 36978 ft | 442 kts | 184° |
| 2026-05-07 16:16 | 46.26802 | -3.70562 | 36979 ft | 443 kts | 188° |
| 2026-05-07 16:16 | 46.20652 | -3.71547 | 36977 ft | 445 kts | 188° |
| 2026-05-07 16:17 | 46.14473 | -3.72532 | 36971 ft | 447 kts | 188° |
| 2026-05-07 16:17 | 46.08284 | -3.73477 | 36968 ft | 448 kts | 188° |
| 2026-05-07 16:18 | 46.02088 | -3.74401 | 36968 ft | 448 kts | 188° |
| 2026-05-07 16:18 | 45.95892 | -3.75319 | 36965 ft | 447 kts | 188° |
| 2026-05-07 16:19 | 45.89764 | -3.76225 | 36960 ft | 445 kts | 188° |
| 2026-05-07 16:19 | 45.83612 | -3.77134 | 36961 ft | 444 kts | 188° |
| 2026-05-07 16:20 | 45.77474 | -3.78039 | 36961 ft | 443 kts | 188° |
| 2026-05-07 16:20 | 45.71345 | -3.78941 | 36960 ft | 442 kts | 188° |
| 2026-05-07 16:21 | 45.65271 | -3.79833 | 36957 ft | 441 kts | 188° |
| 2026-05-07 16:21 | 45.59172 | -3.80726 | 36957 ft | 441 kts | 188° |
| 2026-05-07 16:22 | 45.53058 | -3.81620 | 36959 ft | 442 kts | 188° |
| 2026-05-07 16:22 | 45.46935 | -3.82513 | 36954 ft | 442 kts | 188° |
| 2026-05-07 16:23 | 45.40850 | -3.83399 | 36955 ft | 443 kts | 188° |
| 2026-05-07 16:23 | 45.34698 | -3.84293 | 36951 ft | 444 kts | 188° |
| 2026-05-07 16:24 | 45.28535 | -3.85186 | 36952 ft | 446 kts | 188° |
| 2026-05-07 16:24 | 45.22366 | -3.86077 | 36948 ft | 446 kts | 188° |
| 2026-05-07 16:25 | 45.16212 | -3.86965 | 36943 ft | 447 kts | 188° |
| 2026-05-07 16:25 | 45.10016 | -3.87857 | 36942 ft | 448 kts | 188° |
| 2026-05-07 16:26 | 45.03812 | -3.88748 | 36939 ft | 448 kts | 188° |
| 2026-05-07 16:26 | 44.97600 | -3.89639 | 36935 ft | 448 kts | 188° |
| 2026-05-07 16:27 | 44.91437 | -3.90520 | 36933 ft | 448 kts | 188° |
| 2026-05-07 16:27 | 44.85230 | -3.91406 | 36928 ft | 448 kts | 188° |
| 2026-05-07 16:28 | 44.79022 | -3.92290 | 36931 ft | 448 kts | 188° |
| 2026-05-07 16:28 | 44.72831 | -3.93169 | 36927 ft | 447 kts | 188° |
| 2026-05-07 16:29 | 44.66633 | -3.94048 | 36920 ft | 447 kts | 188° |
| 2026-05-07 16:29 | 44.60487 | -3.94918 | 36918 ft | 447 kts | 188° |
| 2026-05-07 16:30 | 44.54307 | -3.95790 | 36920 ft | 446 kts | 188° |
| 2026-05-07 16:30 | 44.48124 | -3.96662 | 36917 ft | 446 kts | 188° |
| 2026-05-07 16:31 | 44.41951 | -3.97530 | 36916 ft | 446 kts | 188° |
| 2026-05-07 16:31 | 44.35810 | -3.98392 | 36910 ft | 446 kts | 188° |
| 2026-05-07 16:32 | 44.29631 | -3.99220 | 36909 ft | 447 kts | 187° |
| 2026-05-07 16:32 | 44.23426 | -3.99924 | 36902 ft | 447 kts | 187° |
| 2026-05-07 16:33 | 44.17264 | -4.00603 | 36906 ft | 447 kts | 187° |
| 2026-05-07 16:33 | 44.11061 | -4.01297 | 36891 ft | 447 kts | 187° |
| 2026-05-07 16:34 | 44.04850 | -4.02001 | 36900 ft | 448 kts | 187° |
| 2026-05-07 16:34 | 43.98638 | -4.02707 | 36898 ft | 448 kts | 187° |
| 2026-05-07 16:35 | 43.92458 | -4.03408 | 36897 ft | 449 kts | 187° |
| 2026-05-07 16:35 | 43.86235 | -4.04112 | 36890 ft | 449 kts | 187° |
| 2026-05-07 16:36 | 43.80009 | -4.04815 | 36882 ft | 449 kts | 187° |
| 2026-05-07 16:36 | 43.73776 | -4.05517 | 36882 ft | 450 kts | 187° |
| 2026-05-07 16:37 | 43.67544 | -4.06217 | 36888 ft | 450 kts | 187° |
| 2026-05-07 16:37 | 43.61307 | -4.06917 | 36882 ft | 450 kts | 187° |
| 2026-05-07 16:38 | 43.55109 | -4.07610 | 36884 ft | 450 kts | 187° |
| 2026-05-07 16:38 | 43.48875 | -4.08307 | 36882 ft | 449 kts | 187° |
| 2026-05-07 16:39 | 43.42640 | -4.09002 | 36884 ft | 449 kts | 187° |
| 2026-05-07 16:39 | 43.36415 | -4.09694 | 36881 ft | 449 kts | 187° |
| 2026-05-07 16:40 | 43.30185 | -4.10386 | 36885 ft | 449 kts | 187° |
| 2026-05-07 16:40 | 43.24000 | -4.11071 | 36888 ft | 448 kts | 187° |
| 2026-05-07 16:41 | 43.17780 | -4.11758 | 36879 ft | 448 kts | 187° |
| 2026-05-07 16:41 | 43.11561 | -4.12444 | 36879 ft | 448 kts | 187° |
| 2026-05-07 16:42 | 43.05360 | -4.13125 | 36883 ft | 447 kts | 187° |
| 2026-05-07 16:42 | 42.99219 | -4.13799 | 36893 ft | 446 kts | 187° |
| 2026-05-07 16:43 | 42.93028 | -4.14480 | 36892 ft | 446 kts | 187° |
| 2026-05-07 16:43 | 42.86839 | -4.15159 | 36898 ft | 446 kts | 187° |
| 2026-05-07 16:44 | 42.80644 | -4.15835 | 36897 ft | 447 kts | 187° |
| 2026-05-07 16:44 | 42.74479 | -4.16507 | 36907 ft | 448 kts | 187° |
| 2026-05-07 16:45 | 42.68257 | -4.17184 | 36906 ft | 449 kts | 187° |
| 2026-05-07 16:45 | 42.62032 | -4.17860 | 36897 ft | 450 kts | 187° |
| 2026-05-07 16:46 | 42.55790 | -4.18536 | 36903 ft | 450 kts | 187° |
| 2026-05-07 16:46 | 42.49580 | -4.19208 | 36901 ft | 451 kts | 187° |
| 2026-05-07 16:47 | 42.43316 | -4.19884 | 36902 ft | 452 kts | 187° |
| 2026-05-07 16:47 | 42.37053 | -4.20558 | 36897 ft | 452 kts | 188° |
| 2026-05-07 16:48 | 42.30785 | -4.21231 | 36888 ft | 452 kts | 188° |
| 2026-05-07 16:48 | 42.24516 | -4.21904 | 36902 ft | 452 kts | 188° |
| 2026-05-07 16:49 | 42.18298 | -4.22569 | 36904 ft | 452 kts | 188° |
| 2026-05-07 16:49 | 42.12026 | -4.23239 | 36891 ft | 452 kts | 188° |
| 2026-05-07 16:50 | 42.05770 | -4.23906 | 36899 ft | 451 kts | 188° |
| 2026-05-07 16:50 | 41.99524 | -4.24571 | 36899 ft | 450 kts | 188° |
| 2026-05-07 16:51 | 41.93289 | -4.25233 | 36902 ft | 449 kts | 188° |
| 2026-05-07 16:51 | 41.87098 | -4.25889 | 36898 ft | 448 kts | 188° |
| 2026-05-07 16:52 | 41.80887 | -4.26546 | 36904 ft | 447 kts | 188° |
| 2026-05-07 16:52 | 41.74681 | -4.27202 | 36899 ft | 447 kts | 188° |
| 2026-05-07 16:53 | 41.71584 | -4.27528 | 36904 ft | 446 kts | 188° |
| 2026-05-07 16:53 | 41.67531 | -4.27955 | 36903 ft | 446 kts | 188° |
| 2026-05-07 16:54 | 41.61489 | -4.28590 | 36906 ft | 445 kts | 188° |
| 2026-05-07 16:54 | 41.55360 | -4.29234 | 36903 ft | 445 kts | 188° |
| 2026-05-07 16:55 | 41.49189 | -4.29880 | 36906 ft | 444 kts | 188° |
| 2026-05-07 16:55 | 41.45074 | -4.30311 | 36907 ft | 444 kts | 188° |
| 2026-05-07 16:56 | 41.41070 | -4.30729 | 36906 ft | 444 kts | 188° |
| 2026-05-07 16:56 | 41.31874 | -4.31688 | 36907 ft | 444 kts | 188° |
| 2026-05-07 16:57 | 41.25719 | -4.32328 | 36905 ft | 444 kts | 188° |
| 2026-05-07 16:57 | 41.19567 | -4.32966 | 36906 ft | 443 kts | 188° |
| 2026-05-07 16:58 | 41.13415 | -4.33604 | 36907 ft | 443 kts | 188° |
| 2026-05-07 16:58 | 41.07307 | -4.34236 | 36900 ft | 443 kts | 188° |
| 2026-05-07 16:59 | 41.01154 | -4.34871 | 36902 ft | 443 kts | 188° |
| 2026-05-07 16:59 | 40.95013 | -4.35503 | 36903 ft | 443 kts | 188° |
| 2026-05-07 17:00 | 40.88875 | -4.36134 | 36910 ft | 442 kts | 188° |
| 2026-05-07 17:00 | 40.82777 | -4.36760 | 36900 ft | 442 kts | 188° |
| 2026-05-07 17:01 | 40.76657 | -4.37391 | 36905 ft | 441 kts | 188° |
| 2026-05-07 17:01 | 40.70541 | -4.38016 | 36904 ft | 441 kts | 188° |
| 2026-05-07 17:02 | 40.64435 | -4.38637 | 36903 ft | 441 kts | 188° |
| 2026-05-07 17:02 | 40.58306 | -4.39261 | 36898 ft | 440 kts | 188° |
| 2026-05-07 17:03 | 40.52239 | -4.39877 | 36891 ft | 440 kts | 188° |
| 2026-05-07 17:03 | 40.46133 | -4.40497 | 36891 ft | 440 kts | 188° |
| 2026-05-07 17:04 | 40.40033 | -4.41116 | 36894 ft | 440 kts | 188° |
| 2026-05-07 17:04 | 40.33930 | -4.41733 | 36883 ft | 440 kts | 188° |
| 2026-05-07 17:05 | 40.27864 | -4.42346 | 36881 ft | 440 kts | 188° |
| 2026-05-07 17:05 | 40.21751 | -4.42962 | 36876 ft | 440 kts | 188° |
| 2026-05-07 17:06 | 40.15641 | -4.43576 | 36877 ft | 440 kts | 189° |
| 2026-05-07 17:06 | 40.09534 | -4.44190 | 36878 ft | 440 kts | 189° |
| 2026-05-07 17:07 | 40.03470 | -4.44798 | 36874 ft | 440 kts | 189° |
| 2026-05-07 17:07 | 39.97373 | -4.45408 | 36883 ft | 440 kts | 189° |
| 2026-05-07 17:08 | 39.91276 | -4.46016 | 36872 ft | 439 kts | 189° |
| 2026-05-07 17:08 | 39.85174 | -4.46625 | 36882 ft | 439 kts | 189° |
| 2026-05-07 17:09 | 39.79077 | -4.47232 | 36872 ft | 439 kts | 189° |
| 2026-05-07 17:09 | 39.73027 | -4.47833 | 36880 ft | 439 kts | 189° |
| 2026-05-07 17:10 | 39.66928 | -4.48438 | 36871 ft | 439 kts | 189° |
| 2026-05-07 17:10 | 39.60834 | -4.49041 | 36873 ft | 439 kts | 189° |
| 2026-05-07 17:11 | 39.54742 | -4.49643 | 36870 ft | 439 kts | 189° |
| 2026-05-07 17:11 | 39.48693 | -4.50240 | 36869 ft | 439 kts | 189° |
| 2026-05-07 17:12 | 39.42612 | -4.50839 | 36871 ft | 438 kts | 189° |
| 2026-05-07 17:12 | 39.36529 | -4.51437 | 36868 ft | 438 kts | 189° |
| 2026-05-07 17:13 | 39.30448 | -4.52033 | 36871 ft | 438 kts | 189° |
| 2026-05-07 17:13 | 39.24415 | -4.52625 | 36861 ft | 437 kts | 189° |
| 2026-05-07 17:14 | 39.18353 | -4.53217 | 36865 ft | 437 kts | 190° |
| 2026-05-07 17:14 | 39.12288 | -4.53810 | 36862 ft | 437 kts | 190° |
| 2026-05-07 17:15 | 39.06229 | -4.54400 | 36860 ft | 437 kts | 190° |
| 2026-05-07 17:15 | 39.00215 | -4.54986 | 36856 ft | 436 kts | 190° |
| 2026-05-07 17:16 | 38.94157 | -4.55600 | 36849 ft | 435 kts | 192° |
| 2026-05-07 17:16 | 38.88281 | -4.56720 | 36739 ft | 415 kts | 195° |
| 2026-05-07 17:17 | 38.85463 | -4.57344 | 36446 ft | 408 kts | 196° |
| 2026-05-07 17:17 | 38.82684 | -4.57964 | 36061 ft | 403 kts | 196° |
| 2026-05-07 17:17 | 38.79963 | -4.58562 | 35651 ft | 401 kts | 195° |
| 2026-05-07 17:17 | 38.77222 | -4.59153 | 35258 ft | 398 kts | 195° |
| 2026-05-07 17:18 | 38.74503 | -4.59728 | 34894 ft | 394 kts | 195° |
| 2026-05-07 17:18 | 38.71815 | -4.60290 | 34549 ft | 390 kts | 195° |
| 2026-05-07 17:18 | 38.69152 | -4.60842 | 34198 ft | 386 kts | 195° |
| 2026-05-07 17:18 | 38.66513 | -4.61387 | 33862 ft | 383 kts | 195° |
| 2026-05-07 17:19 | 38.63896 | -4.61926 | 33449 ft | 379 kts | 195° |
| 2026-05-07 17:19 | 38.61292 | -4.62463 | 32996 ft | 377 kts | 195° |
| 2026-05-07 17:19 | 38.58725 | -4.62992 | 32563 ft | 376 kts | 195° |
| 2026-05-07 17:19 | 38.56184 | -4.63513 | 31980 ft | 374 kts | 200° |
| 2026-05-07 17:20 | 38.53582 | -4.64047 | 31149 ft | 385 kts | 198° |
| 2026-05-07 17:20 | 38.50911 | -4.64606 | 30517 ft | 391 kts | 198° |
| 2026-05-07 17:20 | 38.48229 | -4.65159 | 30137 ft | 389 kts | 197° |
| 2026-05-07 17:20 | 38.45566 | -4.65702 | 29819 ft | 385 kts | 197° |
| 2026-05-07 17:21 | 38.42934 | -4.66237 | 29438 ft | 381 kts | 197° |
| 2026-05-07 17:21 | 38.40323 | -4.66768 | 29022 ft | 379 kts | 197° |
| 2026-05-07 17:21 | 38.37728 | -4.67298 | 28597 ft | 376 kts | 197° |
| 2026-05-07 17:21 | 38.35153 | -4.67824 | 28176 ft | 374 kts | 197° |
| 2026-05-07 17:22 | 38.32622 | -4.68341 | 27785 ft | 371 kts | 197° |
| 2026-05-07 17:22 | 38.30088 | -4.68857 | 27369 ft | 365 kts | 197° |
| 2026-05-07 17:22 | 38.27596 | -4.69363 | 26780 ft | 362 kts | 197° |
| 2026-05-07 17:22 | 38.25112 | -4.69871 | 26135 ft | 362 kts | 197° |
| 2026-05-07 17:23 | 38.22634 | -4.70377 | 25557 ft | 359 kts | 197° |
| 2026-05-07 17:23 | 38.20172 | -4.70878 | 25025 ft | 356 kts | 196° |
| 2026-05-07 17:23 | 38.17735 | -4.71374 | 24486 ft | 353 kts | 196° |
| 2026-05-07 17:23 | 38.15320 | -4.71866 | 23990 ft | 349 kts | 196° |
| 2026-05-07 17:24 | 38.12973 | -4.72342 | 23591 ft | 344 kts | 196° |
| 2026-05-07 17:24 | 38.10632 | -4.72815 | 23189 ft | 337 kts | 196° |
| 2026-05-07 17:24 | 38.08344 | -4.73277 | 22799 ft | 329 kts | 196° |
| 2026-05-07 17:24 | 38.06112 | -4.73727 | 22463 ft | 321 kts | 196° |
| 2026-05-07 17:25 | 38.03933 | -4.74169 | 22126 ft | 316 kts | 196° |
| 2026-05-07 17:25 | 38.01770 | -4.74609 | 21799 ft | 311 kts | 196° |
| 2026-05-07 17:25 | 37.99632 | -4.75045 | 21489 ft | 314 kts | 196° |
| 2026-05-07 17:25 | 37.97423 | -4.75501 | 21200 ft | 330 kts | 195° |
| 2026-05-07 17:26 | 37.95121 | -4.75974 | 20845 ft | 337 kts | 195° |
| 2026-05-07 17:26 | 37.92810 | -4.76439 | 20484 ft | 335 kts | 195° |
| 2026-05-07 17:26 | 37.90547 | -4.76892 | 20135 ft | 334 kts | 195° |
| 2026-05-07 17:26 | 37.88247 | -4.77354 | 19778 ft | 333 kts | 195° |
| 2026-05-07 17:27 | 37.85962 | -4.77813 | 19436 ft | 332 kts | 195° |
| 2026-05-07 17:27 | 37.83682 | -4.78273 | 19072 ft | 332 kts | 195° |
| 2026-05-07 17:27 | 37.81410 | -4.78731 | 18723 ft | 331 kts | 195° |
| 2026-05-07 17:27 | 37.79128 | -4.79190 | 18367 ft | 331 kts | 195° |
| 2026-05-07 17:28 | 37.76852 | -4.79647 | 18003 ft | 331 kts | 194° |
| 2026-05-07 17:28 | 37.74556 | -4.79940 | 17612 ft | 333 kts | 187° |
| 2026-05-07 17:28 | 37.72246 | -4.79991 | 17261 ft | 332 kts | 185° |
| 2026-05-07 17:28 | 37.69971 | -4.79969 | 16914 ft | 331 kts | 184° |
| 2026-05-07 17:29 | 37.67677 | -4.79934 | 16572 ft | 329 kts | 184° |
| 2026-05-07 17:29 | 37.65389 | -4.79908 | 16229 ft | 327 kts | 184° |
| 2026-05-07 17:29 | 37.63117 | -4.79892 | 15894 ft | 325 kts | 184° |
| 2026-05-07 17:29 | 37.60863 | -4.79886 | 15549 ft | 323 kts | 183° |
| 2026-05-07 17:30 | 37.58625 | -4.79886 | 15230 ft | 321 kts | 183° |
| 2026-05-07 17:30 | 37.56390 | -4.79889 | 14893 ft | 320 kts | 183° |
| 2026-05-07 17:30 | 37.54197 | -4.79895 | 14565 ft | 319 kts | 183° |
| 2026-05-07 17:30 | 37.51980 | -4.79903 | 14239 ft | 318 kts | 182° |
| 2026-05-07 17:31 | 37.49775 | -4.79911 | 13903 ft | 317 kts | 183° |
| 2026-05-07 17:31 | 37.47575 | -4.79920 | 13562 ft | 316 kts | 182° |
| 2026-05-07 17:31 | 37.45381 | -4.79929 | 13186 ft | 314 kts | 182° |
| 2026-05-07 17:31 | 37.43208 | -4.79938 | 12840 ft | 312 kts | 182° |
| 2026-05-07 17:32 | 37.41033 | -4.79947 | 12500 ft | 310 kts | 182° |
| 2026-05-07 17:32 | 37.38879 | -4.79956 | 12171 ft | 309 kts | 182° |
| 2026-05-07 17:32 | 37.36740 | -4.79964 | 11828 ft | 307 kts | 181° |
| 2026-05-07 17:32 | 37.35328 | -4.79970 | 11615 ft | 305 kts | 182° |
| 2026-05-07 17:33 | 37.32529 | -4.79983 | 11181 ft | 303 kts | 182° |
| 2026-05-07 17:33 | 37.30427 | -4.79991 | 10877 ft | 301 kts | 182° |
| 2026-05-07 17:33 | 37.28363 | -4.79999 | 10544 ft | 292 kts | 181° |
| 2026-05-07 17:33 | 37.26369 | -4.80008 | 10228 ft | 284 kts | 181° |
| 2026-05-07 17:34 | 37.24419 | -4.80018 | 9983 ft | 273 kts | 181° |
| 2026-05-07 17:34 | 37.22568 | -4.80024 | 9834 ft | 260 kts | 181° |
| 2026-05-07 17:34 | 37.20775 | -4.80030 | 9537 ft | 254 kts | 181° |
| 2026-05-07 17:34 | 37.19063 | -4.80037 | 9266 ft | 246 kts | 181° |
| 2026-05-07 17:35 | 37.17372 | -4.80044 | 9016 ft | 240 kts | 182° |
| 2026-05-07 17:35 | 37.15714 | -4.80052 | 8771 ft | 235 kts | 182° |
| 2026-05-07 17:35 | 37.14095 | -4.80059 | 8680 ft | 232 kts | 182° |
| 2026-05-07 17:35 | 37.12481 | -4.80066 | 8575 ft | 233 kts | 181° |
| 2026-05-07 17:36 | 37.10853 | -4.80073 | 8477 ft | 234 kts | 181° |
| 2026-05-07 17:36 | 37.09226 | -4.80080 | 8381 ft | 235 kts | 181° |
| 2026-05-07 17:36 | 37.07582 | -4.80088 | 8283 ft | 237 kts | 182° |
| 2026-05-07 17:36 | 37.05947 | -4.80090 | 8088 ft | 242 kts | 181° |
| 2026-05-07 17:37 | 37.04252 | -4.80072 | 7849 ft | 245 kts | 181° |
| 2026-05-07 17:37 | 37.02584 | -4.80051 | 7572 ft | 239 kts | 181° |
| 2026-05-07 17:37 | 37.00928 | -4.79730 | 7105 ft | 243 kts | 167° |
| 2026-05-07 17:37 | 36.99340 | -4.79120 | 6874 ft | 236 kts | 165° |
| 2026-05-07 17:38 | 36.97805 | -4.78497 | 6643 ft | 228 kts | 165° |
| 2026-05-07 17:38 | 36.96301 | -4.77895 | 6389 ft | 228 kts | 165° |
| 2026-05-07 17:38 | 36.94775 | -4.77299 | 6157 ft | 231 kts | 165° |
| 2026-05-07 17:38 | 36.93234 | -4.76706 | 5890 ft | 233 kts | 165° |
| 2026-05-07 17:39 | 36.91708 | -4.76127 | 5647 ft | 232 kts | 165° |
| 2026-05-07 17:39 | 36.90177 | -4.75550 | 5385 ft | 228 kts | 166° |
| 2026-05-07 17:39 | 36.88665 | -4.74983 | 5121 ft | 224 kts | 165° |
| 2026-05-07 17:39 | 36.87183 | -4.74432 | 4904 ft | 220 kts | 165° |
| 2026-05-07 17:40 | 36.85731 | -4.73893 | 4676 ft | 219 kts | 165° |
| 2026-05-07 17:40 | 36.84272 | -4.73351 | 4468 ft | 215 kts | 166° |
| 2026-05-07 17:40 | 36.82822 | -4.72816 | 4252 ft | 218 kts | 165° |
| 2026-05-07 17:40 | 36.81381 | -4.72286 | 4002 ft | 219 kts | 165° |
| 2026-05-07 17:41 | 36.79919 | -4.71745 | 3795 ft | 220 kts | 165° |
| 2026-05-07 17:41 | 36.78474 | -4.71163 | 3562 ft | 217 kts | 155° |
| 2026-05-07 17:41 | 36.77404 | -4.69890 | 3472 ft | 216 kts | 126° |
| 2026-05-07 17:41 | 36.76568 | -4.68299 | 3171 ft | 220 kts | 126° |
| 2026-05-07 17:42 | 36.75778 | -4.66659 | 2855 ft | 220 kts | 121° |
| 2026-05-07 17:42 | 36.75069 | -4.65002 | 2543 ft | 211 kts | 118° |
| 2026-05-07 17:42 | 36.74412 | -4.63425 | 2295 ft | 200 kts | 120° |
| 2026-05-07 17:42 | 36.73782 | -4.61927 | 2060 ft | 192 kts | 120° |
| 2026-05-07 17:43 | 36.73182 | -4.60493 | 1761 ft | 179 kts | 120° |
| 2026-05-07 17:43 | 36.72640 | -4.59205 | 1590 ft | 160 kts | 120° |
| 2026-05-07 17:43 | 36.72129 | -4.57992 | 1363 ft | 157 kts | 120° |
| 2026-05-07 17:43 | 36.71622 | -4.56803 | 1142 ft | 152 kts | 118° |
| 2026-05-07 17:44 | 36.71164 | -4.55691 | 948 ft | 140 kts | 118° |
| 2026-05-07 17:44 | 36.70722 | -4.54634 | 753 ft | 135 kts | 118° |
| 2026-05-07 17:44 | 36.70278 | -4.53577 | 602 ft | 142 kts | 117° |
| 2026-05-07 17:44 | 36.69818 | -4.52473 | 431 ft | 144 kts | 117° |
| 2026-05-07 17:45 | 36.69353 | -4.51366 | 205 ft | 144 kts | 118° |
| 2026-05-07 17:45 | 36.68899 | -4.50284 | 49 ft | 136 kts | 118° |
| 2026-05-07 17:45 | 36.68540 | -4.49437 | 46 ft | 81 kts | 118° |
| 2026-05-07 17:45 | 36.68372 | -4.49058 | 43 ft | 34 kts | 125° |
| 2026-05-07 17:46 | 36.68220 | -4.48888 | 40 ft | 20 kts | 148° |
| 2026-05-07 17:46 | 36.68129 | -4.48887 | 38 ft | 9 kts | 244° |
| 2026-05-07 17:46 | 36.68153 | -4.48958 | 39 ft | 9 kts | 300° |
| 2026-05-07 17:46 | 36.68183 | -4.49027 | 39 ft | 9 kts | 297° |
| 2026-05-07 17:47 | 36.68211 | -4.49094 | 39 ft | 9 kts | 297° |
| 2026-05-07 17:47 | 36.68238 | -4.49159 | 38 ft | 8 kts | 298° |
| 2026-05-07 17:47 | 36.68269 | -4.49232 | 39 ft | 11 kts | 298° |
| 2026-05-07 17:47 | 36.68266 | -4.49333 | 37 ft | 13 kts | 233° |
| 2026-05-07 17:48 | 36.68199 | -4.49409 | 41 ft | 13 kts | 221° |
| 2026-05-07 17:48 | 36.68125 | -4.49490 | 41 ft | 16 kts | 221° |
| 2026-05-07 17:48 | 36.68044 | -4.49581 | 41 ft | 15 kts | 222° |
| 2026-05-07 17:48 | 36.67965 | -4.49668 | 41 ft | 15 kts | 221° |
| 2026-05-07 17:49 | 36.67886 | -4.49755 | 41 ft | 16 kts | 221° |
| 2026-05-07 17:49 | 36.67802 | -4.49848 | 41 ft | 16 kts | 218° |
| 2026-05-07 17:49 | 36.67704 | -4.49898 | 42 ft | 9 kts | 184° |
| 2026-05-07 17:49 | 36.67659 | -4.49851 | 42 ft | 9 kts | 128° |
| 2026-05-07 17:50 | 36.67607 | -4.49778 | 42 ft | 15 kts | 131° |
| 2026-05-07 17:50 | 36.67526 | -4.49664 | 42 ft | 19 kts | 131° |
| 2026-05-07 17:50 | 36.67438 | -4.49541 | 42 ft | 19 kts | 131° |
| 2026-05-07 17:50 | 36.67354 | -4.49423 | 42 ft | 18 kts | 131° |
| 2026-05-07 17:51 | 36.67272 | -4.49308 | 41 ft | 17 kts | 131° |
| 2026-05-07 17:51 | 36.67193 | -4.49197 | 41 ft | 17 kts | 131° |
| 2026-05-07 17:51 | 36.67134 | -4.49083 | 41 ft | 16 kts | 82° |
| 2026-05-07 17:51 | 36.67187 | -4.48972 | 40 ft | 13 kts | 46° |
| 2026-05-07 17:52 | 36.67225 | -4.48936 | 41 ft | 5 kts | 5° |
| 2026-05-07 17:52 | 36.67259 | -4.48956 | 40 ft | 6 kts | 332° |
| 2026-05-07 17:52 | 36.67292 | -4.48979 | 41 ft | 3 kts | 331° |
| 2026-05-07 17:52 | 36.67295 | -4.48981 | 41 ft | 0 kts | 331° |